SMZO

Zorg en Hoop Airport

Paramaribo, Suriname
TAF SMZO 210400Z 2106/2206 VRB02KT CAVOK TX34/2119Z TN24/2110Z FM211200 12010KT 9999 SCT020 FM212200 09004KT CAVOK
Issued Valid From Valid To
Aug-21 @ 04:00 UTC
(14 hours ago)
Aug-21 @ 06:00 UTC
(12 hours ago)
Aug-22 @ 06:00 UTC
(in 12 hours)
Expired Click to View Aug-21 @ 06:00 to Aug-21 @ 12:00
TAF SMZO 210400Z 2106/2206 VRB02KT CAVOK TX34/2119Z TN24/2110Z
Wind Visibility Clouds
Variable at 2 knots 10,000+ meters
  • No significant clouds
From Aug-21 @ 12:00 to Aug-21 @ 22:00
FM211200 12010KT 9999 SCT020
Wind Visibility Clouds
120° at 10 knots 10,000+ meters
  • Scattered at 2,000' AGL
From Aug-21 @ 22:00 to Aug-22 @ 06:00
FM212200 09004KT CAVOK
Wind Visibility Clouds Conditions
90° at 4 knots 10,000+ meters
  • No significant clouds
TAF SMZO 210400Z 2106/2206 VRB02KT CAVOK TX34/2119Z TN24/2110Z FM211200 12010KT 9999 SCT020 FM212200 09004KT CAVOK
Issued Aug-21 @ 04:00 UTC
(14 hours ago)
Valid From Aug-21 @ 06:00 UTC
(12 hours ago)
Valid To Aug-22 @ 06:00 UTC
(in 12 hours)
Aug-21 @ 06:00 - Aug-21 @ 12:00
Wind Visibility
Variable at 2 knots 10,000+ meters
Clouds
  • No significant clouds
From Aug-21 @ 12:00 - Aug-21 @ 22:00
Wind Visibility
120° at 10 knots 10,000+ meters
Clouds
  • Scattered at 2,000' AGL
From Aug-21 @ 22:00 - Aug-22 @ 06:00
Wind Visibility
90° at 4 knots 10,000+ meters
Clouds
  • No significant clouds
Conditions